Etusivu
METAR-TAF:

METAR-TAF

Lentoasemat :

Agadir, Marokko

Leveyspiiri: 30-20N, Pituuspiiri: 009-24W, korkeus merenpinnasta: 74 m

Tämänhetkinen sää

Tämä raportti tehtiin 21 minuuttia sitten, kello 17.30 UTC
Tuuli 14 kn lännestä/lounaasta
Lämpötila 22°C
Kosteus 69%
Ilmanpaine 1013 hPa
Näkyvyys: 8000 m

METAR: GMAD 281730Z 25014KT 8000 NSC 22/16 Q1013 NOSIG

Aika: 18:51 (17:51 UTC)

Sääennuste

Tämä raportti tehtiin 51 minuuttia sitten, kello 17.00 UTC
Ennuste voimassa 28. päivästä klo 18 UTC - 29. päivään klo 24 UTC
Tuuli 10 kn etelästä/lounaasta
Näkyvyys: 8000 m
Hajanaisia pilviä 1600 ft:n korkeudessa
Ajoittain
29. päivästä klo 00 UTC - 29. päivään klo 08 UTC
Pilvistä 1000 ft:n korkeudessa

TAF: GMAD 281700Z 2818/2924 20010KT 8000 SCT016 TEMPO 2900/2908 OVC010

Säähavainnot ja -ennusteet yli 4000 lentoasemalta (METAR- ja TAF-raportit).

Käytössä olevat sääasemat on merkitty karttaan keltaisilla ja punaisilla pisteillä.

Aseta hiiri pisteen päälle nähdäksesi sääaseman nimen.

Klikkaa sitten nähdäksesi säähavainnot ja -ennusteet.

Kartan vaihtaminen: klikkaa mustalla rastilla varustettuja vihreitä pisteitä, niin voit zoomata sisään; viivalla varustettua vihreää pistettä, niin voit zoomata ulos tai vihreitä nuolia, niin pääset viereisille kartoille.


METAR-TAF: